Time;durP1;ratioP1;P1;durP2;ratioP2;P2;SDS_P1;SDS_P2;PMS_P1;PMS_P2;Temp;Humidity;BMP_temperature;BMP_pressure;BME280_temperature;BME280_humidity;BME280_pressure;Samples;Min_cycle;Max_cycle;Signal;HPM_P1;HPM_P2
2022/08/09 00:01:25;;;;;;;3.30;1.10;;;15.60;99.90;;;;;;5023268;28;20042;-65
2022/08/09 00:03:50;;;;;;;2.38;1.38;;;15.50;99.90;;;;;;5026445;28;20140;-62
2022/08/09 00:06:16;;;;;;;6.18;1.30;;;15.50;99.90;;;;;;5025422;28;20034;-60
2022/08/09 00:08:47;;;;;;;2.53;1.25;;;15.40;99.90;;;;;;5026632;28;20124;-67
2022/08/09 00:11:13;;;;;;;1.15;0.88;;;15.40;99.90;;;;;;5024244;28;20073;-57
2022/08/09 00:13:39;;;;;;;1.02;0.90;;;15.30;99.90;;;;;;5025694;28;20077;-61
2022/08/09 00:16:05;;;;;;;6.07;1.33;;;15.20;99.90;;;;;;5026720;28;20041;-61
2022/08/09 00:18:32;;;;;;;4.30;1.58;;;15.20;99.90;;;;;;5024659;28;20041;-62
2022/08/09 00:20:59;;;;;;;5.50;1.50;;;15.20;99.90;;;;;;5027671;28;20077;-62
2022/08/09 00:23:24;;;;;;;2.05;1.05;;;15.20;99.90;;;;;;5029200;28;20123;-57
2022/08/09 00:25:50;;;;;;;4.95;1.67;;;15.20;99.90;;;;;;5030438;28;20137;-62
2022/08/09 00:28:16;;;;;;;2.67;1.15;;;15.10;99.90;;;;;;5011720;28;20057;-57
2022/08/09 00:30:42;;;;;;;5.05;1.30;;;15.10;99.90;;;;;;5030512;28;20050;-65
2022/08/09 00:33:07;;;;;;;3.08;1.60;;;15.10;99.90;;;;;;5028467;28;20044;-65
2022/08/09 00:35:34;;;;;;;5.63;1.60;;;15.00;99.90;;;;;;5029051;28;20060;-57
2022/08/09 00:38:00;;;;;;;4.25;1.45;;;15.00;99.90;;;;;;5030498;28;20053;-58
2022/08/09 00:40:25;;;;;;;1.63;1.25;;;15.00;99.90;;;;;;4991196;28;20046;-64
2022/08/09 00:42:51;;;;;;;0.98;0.90;;;15.00;99.90;;;;;;5022018;28;20049;-64
2022/08/09 00:45:17;;;;;;;0.98;0.98;;;15.00;99.90;;;;;;5028661;28;20479;-61
2022/08/09 00:47:43;;;;;;;2.22;1.20;;;14.90;99.90;;;;;;5029886;28;20034;-61
2022/08/09 00:50:09;;;;;;;3.45;1.00;;;14.80;99.90;;;;;;5029990;28;20038;-57
2022/08/09 00:52:36;;;;;;;0.70;0.70;;;14.70;99.90;;;;;;5028864;28;20534;-63
2022/08/09 00:55:02;;;;;;;1.48;0.70;;;14.70;99.90;;;;;;5030342;28;20241;-61
2022/08/09 00:57:29;;;;;;;3.70;1.00;;;14.60;99.90;;;;;;5025033;28;20080;-63
2022/08/09 00:59:55;;;;;;;5.70;0.85;;;14.60;99.90;;;;;;5004697;28;20076;-65
2022/08/09 01:02:26;;;;;;;1.38;0.77;;;14.70;99.90;;;;;;5028134;28;20080;-62
2022/08/09 01:05:08;;;;;;;1.45;0.70;;;14.70;99.90;;;;;;5030310;28;20052;-59
2022/08/09 01:07:53;;;;;;;3.28;0.75;;;14.70;99.90;;;;;;5029568;28;20053;-62
2022/08/09 01:10:28;;;;;;;2.13;1.10;;;14.70;99.90;;;;;;5020399;28;20045;-58
2022/08/09 01:13:07;;;;;;;2.38;0.90;;;14.60;99.90;;;;;;5029550;28;20119;-66
2022/08/09 01:15:39;;;;;;;4.07;1.33;;;14.60;99.90;;;;;;5028605;28;20123;-57
2022/08/09 01:18:08;;;;;;;2.20;0.70;;;14.50;99.90;;;;;;5029507;28;20049;-62
2022/08/09 01:21:01;;;;;;;2.50;0.95;;;14.50;99.90;;;;;;5029760;28;20430;-58
2022/08/09 01:23:29;;;;;;;3.38;1.27;;;14.60;99.90;;;;;;5011247;28;20041;-64
2022/08/09 01:26:26;;;;;;;1.98;0.70;;;14.50;99.90;;;;;;5029603;28;20103;-62
2022/08/09 01:28:55;;;;;;;5.30;1.17;;;14.50;99.90;;;;;;5011411;28;20038;-57
2022/08/09 01:31:26;;;;;;;1.88;0.60;;;14.50;99.90;;;;;;5027158;28;20041;-58
2022/08/09 01:33:53;;;;;;;0.98;0.68;;;14.50;99.90;;;;;;5029719;28;20044;-57
2022/08/09 01:36:24;;;;;;;2.17;0.75;;;14.50;99.90;;;;;;5026143;28;20507;-63
2022/08/09 01:38:51;;;;;;;3.20;0.90;;;14.50;99.90;;;;;;5029274;28;20249;-59
2022/08/09 01:41:27;;;;;;;1.88;0.80;;;14.50;99.90;;;;;;5026066;28;20275;-61
2022/08/09 01:43:56;;;;;;;2.33;0.90;;;14.40;99.90;;;;;;5029431;28;20041;-58
2022/08/09 01:46:26;;;;;;;;;;;14.30;99.90;;;;;;5029049;28;20060;-64
2022/08/09 01:49:14;;;;;;;3.80;1.63;;;14.30;99.90;;;;;;5028143;28;19928;-58
2022/08/09 01:51:46;;;;;;;4.68;1.05;;;14.20;99.90;;;;;;5028296;28;20484;-61
2022/08/09 01:54:14;;;;;;;4.18;1.30;;;14.10;99.90;;;;;;5028059;28;20087;-57
2022/08/09 01:56:44;;;;;;;2.47;1.02;;;14.10;99.90;;;;;;5028400;28;20188;-59
2022/08/09 01:59:11;;;;;;;;;;;14.10;99.90;;;;;;5009944;28;20064;-65
2022/08/09 02:01:39;;;;;;;4.75;1.10;;;14.10;99.90;;;;;;5027509;28;19924;-62
2022/08/09 02:04:08;;;;;;;2.05;0.90;;;14.10;99.90;;;;;;5028583;28;20061;-66
2022/08/09 02:09:22;;;;;;;2.70;0.98;;;14.00;99.90;;;;;;5010484;28;20119;-61
2022/08/09 02:11:48;;;;;;;1.23;1.13;;;13.90;99.90;;;;;;5026370;28;20402;-57
2022/08/09 02:14:19;;;;;;;4.05;1.30;;;14.00;99.90;;;;;;5027851;28;20057;-59
2022/08/09 02:16:45;;;;;;;3.58;1.80;;;14.00;99.90;;;;;;5028093;28;20124;-61
2022/08/09 02:19:11;;;;;;;1.80;1.08;;;14.00;99.90;;;;;;5027575;28;20049;-62
2022/08/09 02:21:42;;;;;;;1.77;0.95;;;14.00;99.90;;;;;;5028500;28;20468;-61
2022/08/09 02:24:13;;;;;;;3.35;1.27;;;14.00;99.90;;;;;;5007669;28;20060;-62
2022/08/09 02:26:40;;;;;;;1.85;0.95;;;14.00;99.90;;;;;;5010501;28;20054;-61
2022/08/09 02:29:15;;;;;;;1.20;1.10;;;14.00;99.90;;;;;;5009541;28;20610;-62
2022/08/09 02:31:44;;;;;;;6.97;1.10;;;14.00;99.90;;;;;;5015536;28;20089;-62
2022/08/09 02:34:13;;;;;;;2.72;1.05;;;14.00;99.90;;;;;;5028325;28;20060;-65
2022/08/09 02:36:40;;;;;;;;;;;14.00;99.90;;;;;;5026837;28;20491;-60
2022/08/09 02:39:11;;;;;;;4.10;1.33;;;14.00;99.90;;;;;;5019948;28;19932;-64
2022/08/09 02:41:58;;;;;;;5.43;1.27;;;14.00;99.90;;;;;;5026514;28;20816;-61
2022/08/09 02:44:33;;;;;;;2.40;1.42;;;14.00;99.90;;;;;;5027674;28;20406;-60
2022/08/09 02:47:03;;;;;;;1.77;1.20;;;14.00;99.90;;;;;;5028405;28;20049;-60
2022/08/09 02:49:31;;;;;;;1.92;1.20;;;14.00;99.90;;;;;;5026621;28;20037;-57
2022/08/09 02:51:58;;;;;;;7.03;1.30;;;14.00;99.90;;;;;;5026774;28;20126;-58
2022/08/09 02:54:27;;;;;;;2.05;1.23;;;13.90;99.90;;;;;;5026601;28;20495;-63
2022/08/09 02:56:54;;;;;;;3.53;1.35;;;13.90;99.90;;;;;;5027893;28;20044;-58
2022/08/09 02:59:21;;;;;;;3.33;1.20;;;13.90;99.90;;;;;;5006210;28;20042;-66
2022/08/09 03:01:49;;;;;;;0.90;0.90;;;13.90;99.90;;;;;;5006924;28;20025;-59
2022/08/09 03:04:16;;;;;;;0.85;0.80;;;13.90;99.90;;;;;;5027625;28;20124;-64
2022/08/09 03:06:43;;;;;;;3.10;1.10;;;13.90;99.90;;;;;;5026057;28;20053;-65
2022/08/09 03:09:12;;;;;;;3.13;1.20;;;13.90;99.90;;;;;;4992334;28;20049;-66
2022/08/09 03:11:39;;;;;;;1.88;1.10;;;13.90;99.90;;;;;;5025805;28;20463;-63
2022/08/09 03:14:05;;;;;;;2.78;0.93;;;13.90;99.90;;;;;;5027686;28;20128;-63
2022/08/09 03:16:32;;;;;;;3.60;0.90;;;13.80;99.90;;;;;;5026409;28;20061;-59
2022/08/09 03:19:00;;;;;;;1.67;0.85;;;13.80;99.90;;;;;;5025476;28;20049;-67
2022/08/09 03:21:27;;;;;;;2.75;1.15;;;13.80;99.90;;;;;;5013729;28;20049;-68
2022/08/09 03:23:53;;;;;;;2.45;1.00;;;13.80;99.90;;;;;;5026306;28;20052;-58
2022/08/09 03:26:20;;;;;;;8.07;1.48;;;13.80;99.90;;;;;;5027156;28;20049;-58
2022/08/09 03:28:47;;;;;;;2.55;0.90;;;13.80;99.90;;;;;;5025524;28;20041;-57
2022/08/09 03:31:15;;;;;;;6.38;0.90;;;13.80;99.90;;;;;;5025974;28;20358;-58
2022/08/09 03:33:41;;;;;;;1.80;0.82;;;13.80;99.90;;;;;;5025507;28;20049;-61
2022/08/09 03:36:07;;;;;;;4.28;1.17;;;13.80;99.90;;;;;;4992909;28;20499;-64
2022/08/09 03:38:38;;;;;;;3.45;1.17;;;13.80;99.90;;;;;;5008692;28;20052;-58
2022/08/09 03:41:04;;;;;;;2.40;1.02;;;13.80;99.90;;;;;;5015713;28;20042;-57
2022/08/09 03:43:31;;;;;;;1.20;1.02;;;13.80;99.90;;;;;;5026291;28;20052;-68
2022/08/09 03:45:57;;;;;;;1.30;1.13;;;13.90;99.90;;;;;;5008406;28;20077;-58
2022/08/09 03:48:24;;;;;;;2.42;1.15;;;14.00;99.90;;;;;;5027229;28;20613;-60
2022/08/09 03:50:52;;;;;;;2.90;1.10;;;14.00;99.90;;;;;;5006209;28;20121;-58
2022/08/09 03:53:20;;;;;;;1.42;0.90;;;14.00;99.90;;;;;;5023265;28;20098;-68
2022/08/09 03:55:46;;;;;;;1.90;1.17;;;13.90;99.90;;;;;;5008158;28;20333;-54
2022/08/09 03:58:13;;;;;;;9.65;1.30;;;13.90;99.90;;;;;;5026464;28;20049;-60
2022/08/09 04:00:39;;;;;;;5.70;1.92;;;13.90;99.90;;;;;;5008136;28;20122;-60
2022/08/09 04:03:06;;;;;;;1.00;0.90;;;13.90;99.90;;;;;;5003805;28;20116;-64
2022/08/09 04:05:32;;;;;;;2.60;1.08;;;13.90;99.90;;;;;;5025834;28;20116;-68
2022/08/09 04:07:58;;;;;;;3.55;1.25;;;14.00;99.90;;;;;;5007034;28;20518;-65
2022/08/09 04:10:24;;;;;;;3.45;0.93;;;14.00;99.90;;;;;;5026762;28;20541;-57
2022/08/09 04:12:52;;;;;;;3.78;1.17;;;14.10;99.90;;;;;;5005675;28;20041;-66
2022/08/09 04:15:23;;;;;;;3.35;1.45;;;14.20;99.90;;;;;;5026329;28;20582;-60
2022/08/09 04:17:49;;;;;;;2.35;1.13;;;14.50;99.90;;;;;;5008129;28;20399;-61
2022/08/09 04:20:15;;;;;;;4.00;1.30;;;14.60;99.90;;;;;;5025782;28;20095;-63
2022/08/09 04:22:42;;;;;;;3.65;1.38;;;14.70;99.90;;;;;;5018148;28;20061;-62
2022/08/09 04:25:08;;;;;;;3.45;1.42;;;15.00;99.90;;;;;;5025619;28;20057;-57
2022/08/09 04:27:39;;;;;;;4.10;1.27;;;15.10;99.90;;;;;;5026822;28;20399;-67
2022/08/09 04:30:08;;;;;;;4.55;1.30;;;15.10;99.90;;;;;;5008531;28;20046;-62
2022/08/09 04:32:34;;;;;;;2.22;0.98;;;15.00;99.90;;;;;;5019896;28;20053;-66
2022/08/09 04:35:00;;;;;;;4.85;1.65;;;15.00;99.90;;;;;;5025855;28;20041;-61
2022/08/09 04:37:26;;;;;;;2.67;1.20;;;15.00;99.90;;;;;;5006314;28;20051;-68
2022/08/09 04:39:51;;;;;;;2.00;1.13;;;14.90;99.90;;;;;;5025388;28;20051;-57
2022/08/09 04:42:17;;;;;;;1.70;1.00;;;14.90;99.90;;;;;;5024530;28;20072;-66
2022/08/09 04:44:43;;;;;;;4.20;2.20;;;15.00;99.90;;;;;;5023743;28;20084;-60
2022/08/09 04:47:08;;;;;;;3.35;1.17;;;15.00;99.90;;;;;;5024776;28;20056;-60
2022/08/09 04:49:37;;;;;;;2.85;1.75;;;15.10;99.90;;;;;;5025907;28;20045;-62
2022/08/09 04:52:05;;;;;;;3.35;1.70;;;15.20;99.90;;;;;;5023868;28;20041;-58
2022/08/09 04:54:32;;;;;;;2.95;1.48;;;15.20;99.90;;;;;;5024314;28;20049;-63
2022/08/09 04:56:58;;;;;;;3.33;1.27;;;15.20;99.90;;;;;;5025515;28;20210;-65
2022/08/09 04:59:24;;;;;;;2.60;1.40;;;15.30;99.90;;;;;;5025358;28;20033;-56
2022/08/09 05:01:50;;;;;;;4.93;1.35;;;15.40;99.90;;;;;;5007789;28;20045;-67
2022/08/09 05:04:16;;;;;;;5.03;2.13;;;15.50;99.90;;;;;;5022608;28;20108;-61
2022/08/09 05:06:42;;;;;;;6.68;1.63;;;15.60;99.90;;;;;;4992357;28;20523;-59
2022/08/09 05:09:08;;;;;;;6.18;1.67;;;15.70;99.90;;;;;;5029184;28;20099;-54
2022/08/09 05:11:33;;;;;;;4.03;1.70;;;15.70;99.90;;;;;;5028388;28;20499;-54
2022/08/09 05:13:59;;;;;;;3.72;1.73;;;15.80;99.90;;;;;;5027869;28;20271;-58
2022/08/09 05:16:25;;;;;;;6.25;2.28;;;15.80;99.90;;;;;;5010852;28;20128;-59
2022/08/09 05:18:50;;;;;;;4.60;2.65;;;15.90;99.90;;;;;;5029904;28;20136;-66
2022/08/09 05:21:16;;;;;;;6.85;2.40;;;15.90;99.90;;;;;;4994185;28;20037;-62
2022/08/09 05:23:42;;;;;;;3.05;1.70;;;16.00;99.90;;;;;;5029444;28;20108;-64
2022/08/09 05:26:08;;;;;;;4.78;2.10;;;16.00;99.90;;;;;;4997646;28;20092;-58
2022/08/09 05:28:34;;;;;;;5.07;2.47;;;16.10;99.90;;;;;;5029647;28;20045;-57
2022/08/09 05:31:00;;;;;;;7.78;2.55;;;16.10;99.90;;;;;;4994796;28;20057;-56
2022/08/09 05:33:25;;;;;;;2.90;1.80;;;16.10;99.90;;;;;;5011002;28;20038;-55
2022/08/09 05:35:51;;;;;;;3.80;1.92;;;16.20;99.90;;;;;;5025985;28;20045;-60
2022/08/09 05:38:17;;;;;;;3.25;1.90;;;16.20;99.90;;;;;;5028167;28;20044;-63
2022/08/09 05:40:42;;;;;;;4.53;1.92;;;16.30;99.90;;;;;;5010126;28;20077;-66
2022/08/09 05:43:08;;;;;;;2.78;1.60;;;16.30;99.90;;;;;;5010569;28;20049;-57
2022/08/09 05:45:34;;;;;;;6.38;1.83;;;16.40;99.90;;;;;;5010101;28;20456;-58
2022/08/09 05:47:59;;;;;;;2.13;1.40;;;16.40;99.90;;;;;;5010227;28;20415;-64
2022/08/09 05:50:25;;;;;;;5.43;1.50;;;16.50;99.90;;;;;;5029076;28;20443;-62
2022/08/09 05:52:51;;;;;;;4.15;1.20;;;16.50;99.90;;;;;;5028756;28;20128;-60
2022/08/09 05:55:17;;;;;;;4.70;1.48;;;16.60;99.90;;;;;;5028161;28;20045;-60
2022/08/09 05:57:44;;;;;;;2.65;0.93;;;16.70;99.90;;;;;;5027547;28;20049;-60
2022/08/09 06:00:14;;;;;;;3.30;1.08;;;16.70;99.90;;;;;;5027628;28;20049;-65
2022/08/09 06:02:39;;;;;;;2.47;0.90;;;16.80;99.90;;;;;;5028519;28;20085;-52
2022/08/09 06:05:06;;;;;;;1.15;0.90;;;16.90;99.90;;;;;;5027558;28;20363;-57
2022/08/09 06:07:34;;;;;;;1.17;0.85;;;16.90;99.90;;;;;;5025835;28;20048;-53
2022/08/09 06:10:07;;;;;;;4.43;1.17;;;16.90;99.90;;;;;;5028346;28;20057;-67
2022/08/09 06:12:33;;;;;;;5.70;1.20;;;17.00;99.90;;;;;;5009925;28;20060;-62
2022/08/09 06:14:58;;;;;;;4.68;1.10;;;17.10;99.90;;;;;;5028304;28;20041;-67
2022/08/09 06:17:24;;;;;;;4.75;0.68;;;17.10;99.90;;;;;;5020192;28;20042;-60
2022/08/09 06:19:50;;;;;;;6.25;1.02;;;17.20;99.90;;;;;;5027398;28;20041;-61
2022/08/09 06:22:16;;;;;;;3.05;0.70;;;17.20;99.90;;;;;;5027531;28;20072;-50
2022/08/09 06:24:41;;;;;;;1.08;0.98;;;17.20;99.90;;;;;;5027165;28;20044;-57
2022/08/09 06:27:13;;;;;;;4.75;0.80;;;17.20;99.90;;;;;;5025120;28;20057;-51
2022/08/09 06:29:39;;;;;;;2.55;0.55;;;17.30;99.90;;;;;;5009802;28;20049;-64
2022/08/09 06:32:05;;;;;;;1.15;0.55;;;17.30;99.90;;;;;;5028325;28;20053;-53
2022/08/09 06:34:30;;;;;;;2.05;0.60;;;17.30;99.90;;;;;;5027332;28;20046;-64
2022/08/09 06:36:56;;;;;;;6.50;0.70;;;17.30;99.90;;;;;;5026516;28;20072;-56
2022/08/09 06:39:22;;;;;;;1.35;0.60;;;17.30;99.90;;;;;;5009570;28;20590;-55
2022/08/09 06:41:47;;;;;;;1.95;0.73;;;17.40;99.90;;;;;;5028392;28;20242;-57
2022/08/09 06:44:13;;;;;;;1.95;0.80;;;17.50;99.90;;;;;;5027261;28;20460;-62
2022/08/09 06:46:40;;;;;;;1.45;0.80;;;17.50;99.90;;;;;;5008797;28;20061;-62
2022/08/09 06:49:05;;;;;;;4.80;1.20;;;17.50;99.90;;;;;;5008715;28;20045;-58
2022/08/09 06:51:34;;;;;;;2.28;0.82;;;17.50;99.90;;;;;;5025163;28;20079;-57
2022/08/09 06:54:00;;;;;;;1.25;0.60;;;17.50;99.90;;;;;;5010014;28;20049;-52
2022/08/09 06:56:25;;;;;;;1.92;1.00;;;17.60;99.90;;;;;;5026314;28;20108;-53
2022/08/09 06:58:57;;;;;;;1.20;0.80;;;17.60;99.90;;;;;;5026221;28;20060;-61
2022/08/09 07:01:23;;;;;;;1.10;0.70;;;17.60;99.90;;;;;;5026037;28;20045;-61
2022/08/09 07:03:48;;;;;;;3.85;0.70;;;17.60;99.90;;;;;;5027062;28;20057;-60
2022/08/09 07:06:14;;;;;;;4.72;0.75;;;17.70;99.90;;;;;;5026774;28;20045;-55
2022/08/09 07:08:40;;;;;;;4.88;0.80;;;17.70;99.90;;;;;;5008353;28;20442;-53
2022/08/09 07:11:06;;;;;;;1.38;0.80;;;17.90;99.90;;;;;;5008465;28;20034;-59
2022/08/09 07:13:31;;;;;;;1.05;0.68;;;18.00;99.90;;;;;;5026029;28;20395;-55
2022/08/09 07:15:57;;;;;;;1.60;0.90;;;18.10;99.90;;;;;;5026837;28;20026;-58
2022/08/09 07:18:23;;;;;;;6.05;0.68;;;18.20;99.90;;;;;;5025737;28;20476;-64
2022/08/09 07:20:49;;;;;;;3.30;0.60;;;18.40;99.90;;;;;;5027604;28;20042;-64
2022/08/09 07:23:16;;;;;;;1.10;0.50;;;18.50;99.90;;;;;;5026286;28;20045;-57
2022/08/09 07:25:41;;;;;;;5.50;0.80;;;18.70;99.90;;;;;;5023586;28;20053;-58
2022/08/09 07:28:08;;;;;;;2.72;0.60;;;19.00;99.90;;;;;;5026443;28;20492;-56
2022/08/09 07:30:34;;;;;;;3.13;0.68;;;19.20;99.90;;;;;;5007299;28;20056;-53
2022/08/09 07:33:00;;;;;;;0.30;0.30;;;19.40;99.90;;;;;;5026457;28;20116;-65
2022/08/09 07:35:25;;;;;;;1.02;0.35;;;19.40;99.90;;;;;;5025778;28;20125;-57
2022/08/09 07:37:51;;;;;;;2.22;0.50;;;19.60;99.90;;;;;;5000710;28;20049;-59
2022/08/09 07:40:18;;;;;;;4.35;0.70;;;20.00;99.90;;;;;;5007817;28;20510;-57
2022/08/09 07:43:02;;;;;;;1.80;0.43;;;20.40;99.90;;;;;;5008756;28;20041;-55
2022/08/09 07:45:29;;;;;;;3.03;0.88;;;20.80;99.90;;;;;;5026273;28;20034;-56
2022/08/09 07:47:57;;;;;;;1.45;0.60;;;21.10;99.80;;;;;;5025008;28;20045;-62
2022/08/09 07:50:24;;;;;;;1.88;0.50;;;21.20;97.90;;;;;;5024855;28;20060;-61
2022/08/09 07:52:51;;;;;;;1.00;0.50;;;21.40;92.90;;;;;;5025508;28;20045;-64
2022/08/09 07:55:17;;;;;;;1.00;0.47;;;21.60;96.30;;;;;;5026334;28;20545;-60
2022/08/09 07:57:45;;;;;;;2.30;0.40;;;21.80;92.40;;;;;;5025733;28;20103;-64
2022/08/09 08:00:11;;;;;;;0.65;0.32;;;21.90;89.70;;;;;;5008209;28;20089;-66
2022/08/09 08:02:36;;;;;;;1.67;0.30;;;22.10;92.80;;;;;;5025406;28;20045;-60
2022/08/09 08:05:02;;;;;;;2.00;0.40;;;22.30;84.80;;;;;;5007910;28;20053;-61
2022/08/09 08:07:28;;;;;;;1.00;0.43;;;22.40;76.00;;;;;;5026487;28;20044;-57
2022/08/09 08:09:54;;;;;;;1.38;0.32;;;22.30;80.70;;;;;;5024915;28;20053;-56
2022/08/09 08:12:20;;;;;;;0.52;0.40;;;22.50;84.30;;;;;;5026415;28;20049;-58
2022/08/09 08:14:45;;;;;;;0.68;0.30;;;22.50;70.50;;;;;;5007081;28;20503;-57
2022/08/09 08:17:11;;;;;;;1.73;0.40;;;22.60;74.50;;;;;;5025437;28;20045;-65
2022/08/09 08:19:37;;;;;;;0.82;0.40;;;22.60;71.90;;;;;;5007759;28;20560;-59
2022/08/09 08:22:03;;;;;;;0.30;0.20;;;22.30;67.90;;;;;;5024881;28;20083;-56
2022/08/09 08:24:29;;;;;;;1.40;0.43;;;21.90;72.50;;;;;;5024508;28;20060;-58
2022/08/09 08:26:55;;;;;;;0.60;0.45;;;21.60;80.60;;;;;;5024451;28;20488;-66
2022/08/09 08:29:20;;;;;;;3.90;0.40;;;21.70;85.00;;;;;;5008367;28;20038;-59
2022/08/09 08:31:46;;;;;;;2.55;0.80;;;21.90;79.10;;;;;;5025031;28;20465;-64
2022/08/09 08:34:12;;;;;;;2.92;0.25;;;22.10;73.30;;;;;;5025087;28;20118;-60
2022/08/09 08:36:37;;;;;;;3.80;0.50;;;22.30;68.20;;;;;;5007467;28;20049;-53
2022/08/09 08:39:04;;;;;;;0.98;0.40;;;22.60;66.90;;;;;;4988450;28;20542;-63
2022/08/09 08:41:30;;;;;;;0.63;0.22;;;22.90;64.30;;;;;;5025970;28;20396;-59
2022/08/09 08:43:57;;;;;;;0.70;0.28;;;22.70;49.10;;;;;;5027278;28;20042;-60
2022/08/09 08:46:29;;;;;;;0.20;0.20;;;22.60;48.70;;;;;;5028319;28;20041;-66
2022/08/09 08:48:56;;;;;;;0.38;0.30;;;22.90;65.90;;;;;;5008261;28;20049;-56
2022/08/09 08:51:22;;;;;;;3.20;0.32;;;23.20;53.50;;;;;;5010413;28;20211;-65
2022/08/09 08:53:51;;;;;;;1.58;0.50;;;23.10;48.30;;;;;;5005637;28;20160;-59
2022/08/09 08:56:21;;;;;;;0.98;0.25;;;22.60;37.00;;;;;;5027242;28;20050;-62
2022/08/09 08:58:47;;;;;;;0.60;0.57;;;22.20;58.30;;;;;;5009693;28;20041;-64
2022/08/09 09:01:16;;;;;;;0.40;0.30;;;21.90;60.30;;;;;;5004032;28;20045;-58
2022/08/09 09:03:43;;;;;;;0.98;0.20;;;21.70;72.00;;;;;;5026048;28;20057;-64
2022/08/09 09:06:10;;;;;;;0.50;0.30;;;21.50;62.00;;;;;;5025549;28;20423;-64
2022/08/09 09:08:39;;;;;;;0.30;0.30;;;21.20;68.10;;;;;;5009953;28;20053;-68
2022/08/09 09:11:06;;;;;;;0.57;0.20;;;21.20;71.30;;;;;;5026382;28;20045;-59
2022/08/09 09:13:39;;;;;;;0.73;0.30;;;21.20;76.70;;;;;;5024098;28;20048;-64
2022/08/09 09:16:07;;;;;;;0.43;0.32;;;21.50;80.40;;;;;;5027104;28;20099;-68
2022/08/09 09:18:33;;;;;;;0.20;0.20;;;21.40;54.60;;;;;;5008148;28;20096;-63
2022/08/09 09:20:58;;;;;;;0.82;0.40;;;21.10;65.20;;;;;;5027456;28;20069;-65
2022/08/09 09:23:44;;;;;;;0.20;0.20;;;20.90;65.60;;;;;;5007081;28;20037;-66
2022/08/09 09:26:12;;;;;;;0.90;0.30;;;20.90;76.40;;;;;;5007876;28;20124;-59
2022/08/09 09:28:42;;;;;;;0.65;0.28;;;21.00;76.70;;;;;;5027214;28;20060;-65
2022/08/09 09:31:13;;;;;;;0.52;0.20;;;21.00;80.30;;;;;;5020641;28;20054;-58
2022/08/09 09:33:39;;;;;;;0.55;0.40;;;21.00;82.50;;;;;;5021545;28;20050;-65
2022/08/09 09:36:08;;;;;;;0.10;0.10;;;21.00;77.90;;;;;;5012626;28;20081;-65
2022/08/09 09:38:46;;;;;;;0.20;0.20;;;21.20;88.00;;;;;;5003405;28;20125;-68
2022/08/09 09:41:31;;;;;;;0.57;0.40;;;21.50;92.90;;;;;;5016888;28;20399;-57
2022/08/09 09:44:00;;;;;;;0.20;0.20;;;21.80;76.30;;;;;;5024243;28;20041;-61
2022/08/09 09:46:30;;;;;;;1.40;0.20;;;21.90;72.10;;;;;;5010522;28;20050;-57
2022/08/09 09:49:03;;;;;;;0.68;0.28;;;22.00;71.10;;;;;;5014952;28;20061;-68
2022/08/09 09:51:29;;;;;;;0.20;0.20;;;22.00;67.20;;;;;;5015954;28;20137;-64
2022/08/09 09:54:12;;;;;;;1.30;0.40;;;22.10;63.10;;;;;;5002928;28;20113;-64
2022/08/09 09:56:46;;;;;;;0.30;0.30;;;22.20;71.70;;;;;;5022156;28;20412;-66
2022/08/09 09:59:18;;;;;;;0.47;0.20;;;22.50;62.90;;;;;;5005007;28;20145;-62
2022/08/09 10:01:45;;;;;;;0.20;0.20;;;22.80;67.00;;;;;;5011781;28;20045;-67
2022/08/09 10:04:19;;;;;;;1.73;0.20;;;23.20;64.00;;;;;;5026263;28;20061;-60
2022/08/09 10:06:46;;;;;;;0.10;0.10;;;23.30;44.40;;;;;;5007153;28;20048;-62
2022/08/09 10:09:15;;;;;;;0.20;0.20;;;23.40;52.80;;;;;;5026190;28;20069;-67
2022/08/09 10:11:41;;;;;;;0.13;0.10;;;23.60;43.30;;;;;;5008697;28;20041;-61
2022/08/09 10:14:20;;;;;;;0.70;0.20;;;23.70;39.70;;;;;;5025348;28;20502;-65
2022/08/09 10:16:46;;;;;;;1.48;0.20;;;23.60;49.30;;;;;;5026892;28;20103;-62
2022/08/09 10:19:12;;;;;;;1.08;0.32;;;23.70;47.60;;;;;;5024883;28;20057;-60
2022/08/09 10:21:46;;;;;;;2.95;0.30;;;23.80;45.60;;;;;;5011087;28;20069;-58
2022/08/09 10:24:14;;;;;;;1.08;0.20;;;23.80;34.40;;;;;;5026770;28;20091;-60
2022/08/09 10:26:40;;;;;;;0.55;0.35;;;23.90;30.00;;;;;;5028676;28;20053;-61
2022/08/09 10:29:10;;;;;;;0.13;0.13;;;23.90;29.10;;;;;;5027923;28;20045;-55
2022/08/09 10:31:38;;;;;;;0.28;0.20;;;24.00;29.90;;;;;;5022549;28;20064;-64
2022/08/09 10:34:04;;;;;;;0.50;0.10;;;24.00;26.20;;;;;;5002752;28;20045;-64
2022/08/09 10:36:31;;;;;;;0.10;0.10;;;23.80;27.20;;;;;;5003138;28;20099;-64
2022/08/09 10:38:57;;;;;;;0.28;0.20;;;23.70;30.20;;;;;;5026308;28;20041;-63
2022/08/09 10:41:23;;;;;;;0.40;0.10;;;23.60;29.50;;;;;;5024852;28;20041;-65
2022/08/09 10:43:50;;;;;;;0.10;0.10;;;23.70;43.40;;;;;;5009580;28;20050;-67
2022/08/09 10:46:59;;;;;;;0.98;0.10;;;23.70;27.90;;;;;;5026369;28;20484;-58
2022/08/09 10:50:04;;;;;;;0.13;0.10;;;23.60;26.00;;;;;;5023797;28;20089;-63
2022/08/09 10:52:55;;;;;;;1.77;0.20;;;23.50;28.10;;;;;;5025847;28;20037;-65
2022/08/09 10:55:26;;;;;;;0.10;0.10;;;23.50;22.50;;;;;;5009201;28;20506;-58
2022/08/09 10:57:54;;;;;;;0.50;0.28;;;23.40;35.80;;;;;;5026147;28;20055;-60
2022/08/09 11:00:36;;;;;;;3.13;0.25;;;23.60;31.90;;;;;;5009768;28;20089;-65
2022/08/09 11:03:17;;;;;;;0.30;0.10;;;23.70;36.00;;;;;;5007782;28;20065;-62
2022/08/09 11:06:17;;;;;;;0.20;0.20;;;23.80;26.50;;;;;;5025438;28;20128;-64
2022/08/09 11:08:47;;;;;;;0.20;0.10;;;23.50;23.00;;;;;;5027557;28;20037;-64
2022/08/09 11:11:18;;;;;;;0.35;0.10;;;23.30;23.60;;;;;;5025641;28;20048;-61
2022/08/09 11:13:44;;;;;;;1.33;0.20;;;23.20;26.60;;;;;;5025424;28;20049;-62
2022/08/09 11:16:33;;;;;;;1.02;0.30;;;23.00;40.50;;;;;;5024170;28;20060;-69
2022/08/09 11:18:58;;;;;;;;;;;22.80;50.90;;;;;;5007317;28;20045;-66
2022/08/09 11:21:53;;;;;;;0.93;0.30;;;22.70;51.40;;;;;;5026371;28;19927;-62
2022/08/09 11:24:20;;;;;;;2.47;0.40;;;22.70;56.40;;;;;;5007565;28;20053;-59
2022/08/09 11:26:49;;;;;;;1.02;0.38;;;22.70;53.70;;;;;;5027141;28;20053;-64
2022/08/09 11:29:52;;;;;;;1.17;0.43;;;22.70;54.90;;;;;;5025256;28;20131;-67
2022/08/09 11:32:58;;;;;;;3.40;0.30;;;22.50;55.00;;;;;;5002247;28;20084;-58
2022/08/09 11:35:31;;;;;;;0.32;0.22;;;22.50;48.70;;;;;;5015919;28;20060;-64
2022/08/09 11:38:12;;;;;;;0.13;0.13;;;22.60;56.30;;;;;;5011660;28;20049;-57
2022/08/09 11:40:38;;;;;;;0.55;0.50;;;22.50;46.40;;;;;;5007092;28;20288;-63
2022/08/09 11:43:05;;;;;;;0.30;0.30;;;22.20;50.70;;;;;;5026687;28;20053;-62
2022/08/09 11:45:39;;;;;;;2.17;0.20;;;22.20;55.90;;;;;;5017575;28;20041;-64
2022/08/09 11:48:10;;;;;;;0.88;0.40;;;22.20;56.30;;;;;;5022630;28;20363;-65
2022/08/09 11:50:55;;;;;;;6.53;0.40;;;22.20;60.80;;;;;;5025485;28;20041;-64
2022/08/09 11:53:22;;;;;;;1.15;0.40;;;22.10;57.20;;;;;;5025539;28;20136;-62
2022/08/09 11:55:50;;;;;;;2.47;0.43;;;22.10;61.70;;;;;;5026648;28;20050;-58
2022/08/09 11:58:16;;;;;;;0.82;0.50;;;22.10;64.20;;;;;;5025463;28;20046;-64
2022/08/09 12:00:53;;;;;;;0.28;0.20;;;22.20;61.80;;;;;;5008792;28;20073;-63
2022/08/09 12:03:24;;;;;;;0.35;0.30;;;22.30;63.60;;;;;;5002914;28;20072;-63
2022/08/09 12:05:56;;;;;;;0.50;0.28;;;22.30;65.80;;;;;;5021325;28;20053;-62
2022/08/09 12:08:24;;;;;;;0.65;0.28;;;22.40;62.00;;;;;;5020924;28;20052;-63
2022/08/09 12:10:58;;;;;;;2.08;0.20;;;22.40;68.40;;;;;;5026021;28;20077;-63
2022/08/09 12:13:45;;;;;;;0.52;0.30;;;22.40;64.20;;;;;;5026597;28;20045;-63
2022/08/09 12:16:31;;;;;;;0.25;0.13;;;22.40;67.80;;;;;;5005102;28;20061;-63
2022/08/09 12:18:58;;;;;;;0.20;0.20;;;22.20;64.80;;;;;;5009059;28;20558;-62
2022/08/09 12:21:37;;;;;;;0.32;0.28;;;22.10;62.10;;;;;;5024270;28;20069;-56
2022/08/09 12:24:07;;;;;;;0.85;0.30;;;22.20;62.90;;;;;;5025495;28;20041;-60
2022/08/09 12:26:50;;;;;;;0.55;0.28;;;22.30;70.70;;;;;;5024339;28;20044;-57
2022/08/09 12:29:18;;;;;;;0.38;0.22;;;22.20;63.20;;;;;;5025352;28;20434;-58
2022/08/09 12:31:45;;;;;;;0.70;0.40;;;22.00;63.90;;;;;;5026124;28;20053;-66
2022/08/09 12:34:11;;;;;;;0.80;0.13;;;22.00;70.60;;;;;;5026454;28;20292;-62
2022/08/09 12:36:54;;;;;;;0.13;0.13;;;22.00;77.70;;;;;;4990786;28;20053;-65
2022/08/09 12:39:21;;;;;;;0.68;0.40;;;22.10;68.30;;;;;;5025662;28;20454;-61
2022/08/09 12:41:47;;;;;;;0.43;0.35;;;22.20;69.40;;;;;;5024432;28;20065;-65
2022/08/09 12:44:13;;;;;;;0.85;0.52;;;22.30;71.20;;;;;;5026537;28;20167;-61
2022/08/09 12:46:44;;;;;;;0.52;0.30;;;22.30;70.30;;;;;;5024911;28;20073;-60
2022/08/09 12:49:11;;;;;;;0.80;0.30;;;22.40;62.00;;;;;;5022312;28;20084;-59
2022/08/09 12:51:37;;;;;;;0.60;0.30;;;22.50;69.20;;;;;;5025141;28;20041;-55
2022/08/09 12:54:05;;;;;;;2.00;0.38;;;22.40;64.40;;;;;;5024889;28;20140;-67
2022/08/09 12:56:33;;;;;;;0.70;0.30;;;22.60;64.10;;;;;;5007753;28;20407;-60
2022/08/09 12:59:07;;;;;;;1.95;0.20;;;22.60;72.00;;;;;;5024293;28;20395;-60
2022/08/09 13:01:34;;;;;;;1.35;0.30;;;22.60;59.30;;;;;;5020033;28;20049;-59